createdAt,value
2023-03-20T00:01:38.947Z,3.81
2023-03-20T00:06:38.647Z,4.54
2023-03-20T00:11:49.774Z,4.73
2023-03-20T00:16:47.847Z,4.51
2023-03-20T00:21:57.299Z,4.73
2023-03-20T00:27:05.607Z,5.06
2023-03-20T00:32:13.802Z,5.42
2023-03-20T00:37:21.921Z,5.18
2023-03-20T00:42:31.382Z,5.87
2023-03-20T00:47:40.436Z,5.26
2023-03-20T00:52:51.871Z,5.02
2023-03-20T00:57:49.975Z,5.48
2023-03-20T01:02:58.451Z,7.66
2023-03-20T01:08:08.928Z,11.87
2023-03-20T01:13:07.508Z,9.08
2023-03-20T01:18:15.772Z,10.09
2023-03-20T01:23:24.279Z,9.25
2023-03-20T01:28:35.245Z,8.45
2023-03-20T01:33:33.569Z,7.86
2023-03-20T01:38:41.671Z,7.51
2023-03-20T01:43:51.165Z,6.90
2023-03-20T01:49:00.065Z,6.10
2023-03-20T01:54:08.340Z,6.12
2023-03-20T01:59:17.714Z,6.66
2023-03-20T02:04:27.048Z,5.91
2023-03-20T02:09:37.027Z,5.02
2023-03-20T02:14:45.620Z,4.84
2023-03-20T02:19:55.189Z,8.18
2023-03-20T02:25:05.194Z,5.05
2023-03-20T02:30:14.406Z,5.14
2023-03-20T02:35:23.696Z,6.32
2023-03-20T02:40:31.796Z,6.01
2023-03-20T02:45:40.291Z,5.82
2023-03-20T02:50:49.431Z,5.67
2023-03-20T02:55:57.807Z,5.37
2023-03-20T03:01:07.325Z,5.17
2023-03-20T03:06:17.426Z,5.38
2023-03-20T03:11:15.733Z,4.66
2023-03-20T03:16:24.271Z,4.83
2023-03-20T03:21:32.383Z,4.97
2023-03-20T03:26:41.980Z,5.08
2023-03-20T03:31:50.245Z,4.63
2023-03-20T03:36:58.937Z,4.26
2023-03-20T03:42:07.154Z,3.97
2023-03-20T03:47:15.574Z,4.20
2023-03-20T03:52:24.086Z,4.38
2023-03-20T03:57:34.562Z,4.18
2023-03-20T04:02:34.978Z,4.09
2023-03-20T04:07:36.881Z,3.86
2023-03-20T04:12:34.678Z,3.40
2023-03-20T04:17:43.436Z,3.20
2023-03-20T04:22:51.662Z,3.08
2023-03-20T04:28:03.549Z,2.98
2023-03-20T04:33:03.019Z,3.89
2023-03-20T04:38:14.304Z,3.63
2023-03-20T04:43:12.316Z,3.61
2023-03-20T04:48:21.638Z,3.67
2023-03-20T04:53:29.728Z,3.77
2023-03-20T04:58:38.463Z,4.14
2023-03-20T05:03:46.768Z,3.80
2023-03-20T05:08:56.141Z,4.09
2023-03-20T05:14:08.215Z,4.19
2023-03-20T05:19:07.723Z,4.42
2023-03-20T05:24:18.147Z,4.98
2023-03-20T05:29:17.998Z,4.52
2023-03-20T05:34:29.544Z,4.99
2023-03-20T05:39:29.106Z,4.37
2023-03-20T05:44:38.434Z,4.92
2023-03-20T05:49:48.178Z,4.69
2023-03-20T05:54:56.212Z,4.38
2023-03-20T06:00:04.695Z,4.65
2023-03-20T06:05:12.827Z,4.77
2023-03-20T06:10:15.211Z,5.38
2023-03-20T06:15:25.420Z,4.59
2023-03-20T06:20:26.479Z,4.69
2023-03-20T06:25:25.252Z,4.55
2023-03-20T06:30:35.220Z,4.96
2023-03-20T06:35:44.598Z,4.88
2023-03-20T06:40:55.051Z,5.38
2023-03-20T06:45:53.880Z,5.58
2023-03-20T06:51:04.311Z,5.63
2023-03-20T06:56:02.592Z,5.19
2023-03-20T07:01:14.447Z,5.32
2023-03-20T07:06:13.870Z,5.13
2023-03-20T07:11:23.983Z,5.80
2023-03-20T07:16:22.785Z,5.77
2023-03-20T07:21:32.929Z,6.24
2023-03-20T07:26:31.114Z,5.71
2023-03-20T07:31:42.003Z,5.91
2023-03-20T07:36:39.951Z,5.97
2023-03-20T07:41:49.997Z,7.82
2023-03-20T07:46:49.167Z,5.78
2023-03-20T07:51:59.123Z,5.47
2023-03-20T07:57:08.434Z,5.27
2023-03-20T08:02:17.226Z,4.94
2023-03-20T08:07:27.969Z,5.13
2023-03-20T08:12:27.664Z,5.26
2023-03-20T08:17:37.936Z,5.21
2023-03-20T08:22:36.021Z,5.51
2023-03-20T08:27:45.856Z,5.41
2023-03-20T08:32:56.343Z,4.95
2023-03-20T08:37:56.495Z,5.22
2023-03-20T08:42:55.069Z,5.49
2023-03-20T08:48:03.853Z,5.30
2023-03-20T08:53:12.011Z,5.02
2023-03-20T08:58:21.327Z,5.52
2023-03-20T09:03:30.018Z,5.42
2023-03-20T09:08:39.413Z,5.32
2023-03-20T09:13:50.290Z,5.14
2023-03-20T09:18:49.382Z,5.22
2023-03-20T09:23:58.047Z,5.06
2023-03-20T09:29:06.913Z,4.86
2023-03-20T09:34:16.742Z,4.77
2023-03-20T09:39:25.828Z,4.40
2023-03-20T09:44:37.023Z,4.52
2023-03-20T09:49:31.800Z,4.72
2023-03-20T09:54:53.253Z,4.81
2023-03-20T09:59:48.935Z,5.19
2023-03-20T10:04:58.551Z,4.61
2023-03-20T10:10:08.550Z,5.36
2023-03-20T10:15:06.907Z,5.39
2023-03-20T10:20:17.567Z,5.69
2023-03-20T10:25:17.617Z,6.47
2023-03-20T10:30:17.404Z,7.11
2023-03-20T10:35:28.787Z,8.38
2023-03-20T10:40:28.243Z,7.60
2023-03-20T10:45:36.958Z,6.78
2023-03-20T10:50:47.160Z,5.92
2023-03-20T10:55:47.383Z,5.69
2023-03-20T11:00:47.006Z,5.54
2023-03-20T11:06:08.859Z,6.38
2023-03-20T11:11:04.282Z,6.20
2023-03-20T11:16:12.831Z,6.51
2023-03-20T11:21:21.196Z,5.10
2023-03-20T11:26:30.840Z,5.46
2023-03-20T11:31:39.335Z,4.76
2023-03-20T11:37:06.390Z,4.87
2023-03-20T11:41:48.450Z,4.73
2023-03-20T11:46:58.707Z,3.87
2023-03-20T11:51:57.214Z,3.79
2023-03-20T11:57:07.140Z,5.71
2023-03-20T12:02:16.786Z,4.19
2023-03-20T12:07:26.537Z,4.88
2023-03-20T12:12:36.253Z,5.11
2023-03-20T12:17:46.174Z,4.62
2023-03-20T12:22:54.649Z,4.38
2023-03-20T12:28:03.227Z,3.52
2023-03-20T12:33:11.906Z,4.04
2023-03-20T12:38:22.034Z,4.37
2023-03-20T12:43:20.278Z,5.89
2023-03-20T12:48:30.484Z,4.89
2023-03-20T12:53:28.666Z,3.68
2023-03-20T12:58:37.535Z,5.29
2023-03-20T13:03:47.216Z,4.00
2023-03-20T13:08:56.209Z,3.92
2023-03-20T13:14:05.588Z,5.99
2023-03-20T13:19:15.138Z,4.02
2023-03-20T13:24:23.629Z,4.33
2023-03-20T13:29:32.062Z,3.48
2023-03-20T13:34:41.463Z,3.65
2023-03-20T13:39:50.980Z,3.97
2023-03-20T13:44:59.262Z,3.80
2023-03-20T13:50:08.014Z,4.80
2023-03-20T13:55:16.569Z,3.73
2023-03-20T14:00:26.382Z,3.86
2023-03-20T14:05:39.346Z,4.85
2023-03-20T14:10:38.028Z,4.51
2023-03-20T14:15:46.458Z,4.39
2023-03-20T14:20:56.336Z,4.32
2023-03-20T14:26:08.281Z,5.66
2023-03-20T14:31:07.240Z,4.88
2023-03-20T14:36:15.833Z,6.56
2023-03-20T14:41:26.622Z,6.85
2023-03-20T14:46:25.978Z,5.65
2023-03-20T14:51:36.183Z,5.64
2023-03-20T14:56:35.576Z,5.57
2023-03-20T15:01:43.862Z,5.96
2023-03-20T15:06:51.792Z,5.58
2023-03-20T15:12:02.945Z,4.88
2023-03-20T15:17:03.931Z,5.10
2023-03-20T15:22:02.706Z,5.03
2023-03-20T15:27:12.051Z,4.85
2023-03-20T15:32:21.328Z,5.22
2023-03-20T15:37:30.008Z,9.11
2023-03-20T15:42:38.617Z,12.03
2023-03-20T15:47:47.090Z,13.74
2023-03-20T15:52:57.384Z,11.37
2023-03-20T15:57:48.613Z,9.28
2023-03-20T16:02:57.034Z,6.27
2023-03-20T16:08:06.704Z,8.62
2023-03-20T16:13:16.742Z,7.54
2023-03-20T16:18:08.690Z,7.65
2023-03-20T16:23:18.710Z,6.47
2023-03-20T16:28:17.909Z,7.32
2023-03-20T16:33:27.388Z,7.53
2023-03-20T16:38:37.781Z,7.60
2023-03-20T16:43:36.276Z,7.22
2023-03-20T16:48:44.739Z,7.06
2023-03-20T16:53:53.298Z,7.33
2023-03-20T16:59:01.721Z,8.64
2023-03-20T17:04:11.882Z,6.56
2023-03-20T17:09:11.383Z,6.49
2023-03-20T17:14:22.909Z,6.09
2023-03-20T17:19:22.675Z,5.79
2023-03-20T17:24:31.452Z,5.31
2023-03-20T17:29:39.735Z,5.41
2023-03-20T17:34:41.974Z,5.14
2023-03-20T17:39:51.964Z,4.96
2023-03-20T17:45:01.044Z,5.18
2023-03-20T17:50:09.446Z,7.84
2023-03-20T17:55:19.554Z,7.12
2023-03-20T18:00:18.056Z,6.73
2023-03-20T18:05:29.344Z,6.50
2023-03-20T18:10:40.960Z,8.33
2023-03-20T18:15:38.873Z,6.40
2023-03-20T18:20:42.521Z,6.53
2023-03-20T18:25:46.186Z,6.12
2023-03-20T18:30:54.393Z,6.19
2023-03-20T18:35:57.303Z,6.19
2023-03-20T18:40:59.275Z,5.80
2023-03-20T18:46:02.036Z,5.37
2023-03-20T18:51:05.587Z,6.39
2023-03-20T18:56:06.600Z,7.38
2023-03-20T19:01:08.776Z,6.27
2023-03-20T19:06:11.304Z,6.24
2023-03-20T19:11:11.910Z,6.18
2023-03-20T19:16:15.950Z,6.02
2023-03-20T19:21:15.500Z,6.43
2023-03-20T19:26:13.739Z,5.98
2023-03-20T19:31:23.693Z,5.95
2023-03-20T19:36:34.222Z,6.01
2023-03-20T19:41:32.626Z,6.59
2023-03-20T19:46:42.244Z,6.41
2023-03-20T19:51:50.622Z,6.73
2023-03-20T19:57:00.345Z,6.50
2023-03-20T20:02:09.286Z,6.24
2023-03-20T20:07:48.955Z,6.68
2023-03-20T20:12:28.089Z,6.32
2023-03-20T20:17:37.771Z,6.51
2023-03-20T20:22:46.334Z,6.86
2023-03-20T20:27:54.826Z,6.45
2023-03-20T20:33:09.457Z,6.77
2023-03-20T20:38:40.767Z,6.83
2023-03-20T20:43:38.946Z,6.74
2023-03-20T20:48:21.650Z,7.10
2023-03-20T20:53:30.594Z,7.24
2023-03-20T20:58:39.571Z,7.34
2023-03-20T21:03:47.764Z,6.26
2023-03-20T21:08:58.777Z,7.16
2023-03-20T21:13:58.000Z,6.38
2023-03-20T21:19:06.540Z,6.27
2023-03-20T21:24:31.756Z,6.42
2023-03-20T21:29:25.876Z,5.57
2023-03-20T21:34:33.862Z,6.44
2023-03-20T21:39:43.380Z,6.85
2023-03-20T21:45:49.762Z,6.65
2023-03-20T21:56:02.437Z,7.08
2023-03-20T22:05:58.721Z,6.44
2023-03-20T22:11:27.079Z,6.31
2023-03-20T22:16:24.258Z,6.00
2023-03-20T22:21:30.002Z,6.09
2023-03-20T22:27:03.441Z,6.13
2023-03-20T22:32:02.390Z,6.39
2023-03-20T22:37:08.800Z,5.96
2023-03-20T22:42:13.723Z,6.14
2023-03-20T22:46:44.779Z,6.44
2023-03-20T22:51:57.430Z,5.92
2023-03-20T22:56:49.133Z,5.99
2023-03-20T23:01:58.673Z,5.91
2023-03-20T23:07:07.975Z,5.97
2023-03-20T23:12:17.181Z,6.32
2023-03-20T23:17:27.047Z,6.36
2023-03-20T23:22:36.795Z,6.47
2023-03-20T23:27:45.458Z,6.45
2023-03-20T23:32:54.628Z,6.22
2023-03-20T23:38:02.709Z,6.13
2023-03-20T23:43:12.958Z,6.27
2023-03-20T23:48:13.189Z,7.01
2023-03-20T23:53:20.785Z,6.71
2023-03-20T23:58:11.836Z,6.29
